createdAt,value
2022-08-30T00:00:00.615Z,95511.41
2022-08-30T00:02:47.175Z,95513.22
2022-08-30T00:05:23.144Z,95507.31
2022-08-30T00:08:10.095Z,95509.25
2022-08-30T00:10:44.238Z,95508.53
2022-08-30T00:13:31.103Z,95503.50
2022-08-30T00:16:04.996Z,95507.06
2022-08-30T00:18:52.103Z,95503.78
2022-08-30T00:21:34.104Z,95504.72
2022-08-30T00:24:21.077Z,95512.47
2022-08-30T00:26:54.188Z,95505.69
2022-08-30T00:29:41.087Z,95511.72
2022-08-30T00:32:14.246Z,95509.97
2022-08-30T00:35:01.097Z,95505.63
2022-08-30T00:37:34.158Z,95503.91
2022-08-30T00:40:24.912Z,95509.06
2022-08-30T00:43:05.871Z,95508.25
2022-08-30T00:45:53.135Z,95517.69
2022-08-30T00:48:26.177Z,95511.72
2022-08-30T00:51:17.096Z,95510.91
2022-08-30T00:53:56.271Z,95514.47
2022-08-30T00:56:43.101Z,95513.84
2022-08-30T00:59:23.109Z,95515.53
2022-08-30T01:02:10.176Z,95514.63
2022-08-30T01:04:47.187Z,95509.53
2022-08-30T01:07:34.115Z,95513.88
2022-08-30T01:10:16.110Z,95501.13
2022-08-30T01:13:10.127Z,95499.53
2022-08-30T01:15:57.153Z,95496.22
2022-08-30T01:18:38.139Z,95487.81
2022-08-30T01:21:35.127Z,95496.38
2022-08-30T01:24:16.129Z,95501.38
2022-08-30T01:27:11.117Z,95508.16
2022-08-30T01:29:58.126Z,95508.97
2022-08-30T01:32:34.334Z,95507.34
2022-08-30T01:35:24.123Z,95513.41
2022-08-30T01:37:58.224Z,95514.22
2022-08-30T01:40:45.178Z,95509.84
2022-08-30T01:43:20.225Z,95502.13
2022-08-30T01:46:08.172Z,95491.97
2022-08-30T01:48:53.803Z,95492.09
2022-08-30T01:51:41.143Z,95484.50
2022-08-30T01:54:21.138Z,95476.88
2022-08-30T01:57:24.175Z,95480.31
2022-08-30T02:00:21.135Z,95479.53
2022-08-30T02:03:08.140Z,95484.63
2022-08-30T02:05:41.240Z,95476.00
2022-08-30T02:08:28.129Z,95485.38
2022-08-30T02:11:09.149Z,95481.03
2022-08-30T02:13:57.143Z,95488.72
2022-08-30T02:16:38.175Z,95489.63
2022-08-30T02:19:32.144Z,95492.19
2022-08-30T02:22:19.136Z,95492.22
2022-08-30T02:24:52.230Z,95484.59
2022-08-30T02:27:39.151Z,95492.47
2022-08-30T02:30:17.242Z,95497.63
2022-08-30T02:33:04.147Z,95495.88
2022-08-30T02:35:37.227Z,95500.16
2022-08-30T02:38:24.154Z,95492.56
2022-08-30T02:40:58.317Z,95494.38
2022-08-30T02:43:45.180Z,95495.31
2022-08-30T02:46:18.410Z,95496.22
2022-08-30T02:49:23.745Z,95499.69
2022-08-30T02:51:58.254Z,95493.78
2022-08-30T02:54:45.162Z,95493.94
2022-08-30T02:57:20.473Z,95493.19
2022-08-30T03:00:08.165Z,95485.59
2022-08-30T03:02:41.279Z,95491.63
2022-08-30T03:05:28.174Z,95488.28
2022-08-30T03:08:01.424Z,95484.91
2022-08-30T03:10:48.182Z,95496.91
2022-08-30T03:13:21.244Z,95489.28
2022-08-30T03:16:08.194Z,95490.19
2022-08-30T03:18:43.197Z,95491.94
2022-08-30T03:21:30.191Z,95491.09
2022-08-30T03:24:03.261Z,95483.38
2022-08-30T03:26:50.179Z,95476.63
2022-08-30T03:29:23.255Z,95477.53
2022-08-30T03:32:10.218Z,95468.19
2022-08-30T03:34:50.195Z,95474.19
2022-08-30T03:37:37.203Z,95476.72
2022-08-30T03:40:20.242Z,95484.38
2022-08-30T03:43:14.195Z,95491.09
2022-08-30T03:46:01.203Z,95496.09
2022-08-30T03:48:35.325Z,95501.19
2022-08-30T03:51:22.181Z,95491.75
2022-08-30T03:54:02.201Z,95495.16
2022-08-30T03:56:56.181Z,95489.13
2022-08-30T03:59:50.212Z,95484.03
2022-08-30T04:02:44.194Z,95484.91
2022-08-30T04:05:38.188Z,95480.81
2022-08-30T04:08:32.215Z,95492.06
2022-08-30T04:11:19.191Z,95489.56
2022-08-30T04:13:53.326Z,95491.38
2022-08-30T04:16:40.240Z,95499.97
2022-08-30T04:19:13.313Z,95500.81
2022-08-30T04:22:00.210Z,95503.44
2022-08-30T04:24:34.537Z,95499.22
2022-08-30T04:27:21.215Z,95500.94
2022-08-30T04:30:03.209Z,95502.63
2022-08-30T04:32:58.895Z,95514.59
2022-08-30T04:35:52.231Z,95516.25
2022-08-30T04:38:30.559Z,95513.63
2022-08-30T04:41:23.232Z,95512.72
2022-08-30T04:44:03.214Z,95515.22
2022-08-30T04:46:50.212Z,95514.31
2022-08-30T04:49:23.307Z,95521.16
2022-08-30T04:52:12.203Z,95529.69
2022-08-30T04:54:45.307Z,95520.25
2022-08-30T04:57:33.224Z,95522.78
2022-08-30T05:00:13.230Z,95526.09
2022-08-30T05:03:00.231Z,95520.97
2022-08-30T05:05:49.239Z,95528.59
2022-08-30T05:08:36.247Z,95529.31
2022-08-30T05:11:19.215Z,95532.59
2022-08-30T05:14:06.227Z,95534.91
2022-08-30T05:16:39.361Z,95529.56
2022-08-30T05:19:26.241Z,95539.59
2022-08-30T05:21:59.325Z,95541.09
2022-08-30T05:24:46.234Z,95541.75
2022-08-30T05:27:19.330Z,95539.75
2022-08-30T05:30:07.239Z,95542.94
2022-08-30T05:32:40.310Z,95547.78
2022-08-30T05:35:28.243Z,95550.97
2022-08-30T05:38:02.325Z,95552.38
2022-08-30T05:40:50.246Z,95546.16
2022-08-30T05:43:23.317Z,95551.03
2022-08-30T05:46:19.483Z,95555.97
2022-08-30T05:48:53.351Z,95549.72
2022-08-30T05:51:44.277Z,95552.03
2022-08-30T05:54:19.326Z,95553.47
2022-08-30T05:57:06.244Z,95556.56
2022-08-30T05:59:39.348Z,95552.88
2022-08-30T06:02:26.251Z,95553.44
2022-08-30T06:04:59.353Z,95548.81
2022-08-30T06:07:46.240Z,95551.91
2022-08-30T06:10:19.329Z,95546.41
2022-08-30T06:13:06.270Z,95542.69
2022-08-30T06:15:39.405Z,95544.94
2022-08-30T06:18:28.497Z,95548.06
2022-08-30T06:21:13.392Z,95545.09
2022-08-30T06:24:03.272Z,95559.31
2022-08-30T06:26:37.367Z,95554.75
2022-08-30T06:29:26.275Z,95550.09
2022-08-30T06:31:59.363Z,95559.22
2022-08-30T06:34:46.264Z,95553.91
2022-08-30T06:37:29.282Z,95554.59
2022-08-30T06:40:18.294Z,95551.88
2022-08-30T06:42:51.689Z,95550.03
2022-08-30T06:45:38.273Z,95553.19
2022-08-30T06:48:11.367Z,95555.50
2022-08-30T06:51:01.280Z,95554.41
2022-08-30T06:53:35.411Z,95551.69
2022-08-30T06:56:22.376Z,95559.34
2022-08-30T06:58:56.505Z,95548.81
2022-08-30T07:01:43.300Z,95552.94
2022-08-30T07:04:23.306Z,95544.91
2022-08-30T07:07:17.299Z,95553.28
2022-08-30T07:10:04.297Z,95553.75
2022-08-30T07:12:37.360Z,95543.00
2022-08-30T07:15:29.279Z,95540.81
2022-08-30T07:18:25.965Z,95550.56
2022-08-30T07:21:16.281Z,95543.88
2022-08-30T07:23:53.455Z,95542.34
2022-08-30T07:26:43.292Z,95550.44
2022-08-30T07:29:17.371Z,95554.19
2022-08-30T07:32:04.299Z,95550.09
2022-08-30T07:34:37.414Z,95551.19
2022-08-30T07:37:31.309Z,95556.44
2022-08-30T07:40:25.400Z,95554.06
2022-08-30T07:43:19.404Z,95550.25
2022-08-30T07:46:12.372Z,95554.88
2022-08-30T07:48:53.320Z,95554.47
2022-08-30T07:51:47.330Z,95551.59
2022-08-30T07:54:34.346Z,95543.47
2022-08-30T07:57:15.929Z,95543.13
2022-08-30T08:00:09.316Z,95548.00
2022-08-30T08:02:56.381Z,95548.59
2022-08-30T08:05:29.397Z,95543.91
2022-08-30T08:08:17.443Z,95540.69
2022-08-30T08:10:50.553Z,95538.66
2022-08-30T08:13:52.648Z,95535.94
2022-08-30T08:16:36.336Z,95534.81
2022-08-30T08:19:30.331Z,95540.56
2022-08-30T08:22:21.586Z,95528.00
2022-08-30T08:24:56.545Z,95535.56
2022-08-30T08:27:43.345Z,95524.19
2022-08-30T08:30:18.016Z,95530.31
2022-08-30T08:33:04.326Z,95536.72
2022-08-30T08:35:37.455Z,95537.59
2022-08-30T08:38:31.344Z,95539.38
2022-08-30T08:41:34.375Z,95538.59
2022-08-30T08:44:14.496Z,95543.09
2022-08-30T08:47:22.358Z,95540.41
2022-08-30T08:49:59.471Z,95545.41
2022-08-30T08:53:52.756Z,95543.38
2022-08-30T08:56:33.356Z,95544.63
2022-08-30T08:59:29.347Z,95543.50
2022-08-30T09:02:37.358Z,95544.88
2022-08-30T09:05:27.431Z,95552.31
2022-08-30T09:08:23.486Z,95541.38
2022-08-30T09:11:16.358Z,95553.31
2022-08-30T09:13:56.364Z,95542.09
2022-08-30T09:17:18.406Z,95534.13
2022-08-30T09:20:07.378Z,95545.00
2022-08-30T09:22:53.450Z,95538.53
2022-08-30T09:25:41.780Z,95543.34
2022-08-30T09:28:28.380Z,95541.44
2022-08-30T09:31:44.366Z,95534.31
2022-08-30T09:34:24.459Z,95535.63
2022-08-30T09:37:44.375Z,95541.66
2022-08-30T09:40:50.392Z,95526.22
2022-08-30T09:43:40.384Z,95527.88
2022-08-30T09:46:17.531Z,95533.00
2022-08-30T09:49:04.376Z,95521.25
2022-08-30T09:52:06.421Z,95522.31
2022-08-30T09:55:21.386Z,95519.88
2022-08-30T09:58:43.449Z,95518.16
2022-08-30T10:01:46.391Z,95519.03
2022-08-30T10:04:47.373Z,95525.06
2022-08-30T10:07:30.482Z,95524.13
2022-08-30T10:10:41.798Z,95526.66
2022-08-30T10:13:33.747Z,95529.81
2022-08-30T10:16:52.385Z,95526.03
2022-08-30T10:19:51.412Z,95524.91
2022-08-30T10:22:46.086Z,95525.97
2022-08-30T10:25:28.486Z,95525.16
2022-08-30T10:28:22.428Z,95519.94
2022-08-30T10:31:09.489Z,95514.56
2022-08-30T10:34:05.440Z,95510.16
2022-08-30T10:36:48.541Z,95505.72
2022-08-30T10:39:43.421Z,95509.06
2022-08-30T10:42:26.542Z,95504.47
2022-08-30T10:45:21.407Z,95500.94
2022-08-30T10:48:06.503Z,95490.53
2022-08-30T10:51:00.433Z,95506.00
2022-08-30T10:54:06.437Z,95506.00
2022-08-30T10:57:04.443Z,95509.19
2022-08-30T11:00:19.427Z,95501.47
2022-08-30T11:03:32.450Z,95490.16
2022-08-30T11:06:22.509Z,95491.94
2022-08-30T11:09:28.410Z,95485.72
2022-08-30T11:12:08.524Z,95483.69
2022-08-30T11:14:55.439Z,95479.13
2022-08-30T11:17:38.510Z,95487.69
2022-08-30T11:20:52.439Z,95488.41
2022-08-30T11:23:25.610Z,95493.50
2022-08-30T11:26:20.330Z,95493.59
2022-08-30T11:28:53.514Z,95490.06
2022-08-30T11:31:55.454Z,95482.25
2022-08-30T11:34:51.434Z,95483.19
2022-08-30T11:37:50.633Z,95484.09
2022-08-30T11:40:57.452Z,95480.59
2022-08-30T11:43:43.549Z,95484.88
2022-08-30T11:46:33.496Z,95488.91
2022-08-30T11:49:16.568Z,95489.69
2022-08-30T11:52:27.714Z,95482.00
2022-08-30T11:55:29.541Z,95475.22
2022-08-30T11:58:22.475Z,95471.09
2022-08-30T12:01:42.346Z,95467.81
2022-08-30T12:04:31.503Z,95460.03
2022-08-30T12:07:13.485Z,95460.84
2022-08-30T12:10:07.497Z,95467.81
2022-08-30T12:12:57.494Z,95466.06
2022-08-30T12:16:05.241Z,95465.47
2022-08-30T12:19:16.469Z,95472.56
2022-08-30T12:22:02.600Z,95469.34
2022-08-30T12:24:53.478Z,95461.84
2022-08-30T12:27:39.560Z,95457.72
2022-08-30T12:30:34.474Z,95453.53
2022-08-30T12:33:14.487Z,95445.72
2022-08-30T12:36:08.518Z,95453.63
2022-08-30T12:39:05.653Z,95442.38
2022-08-30T12:42:00.495Z,95445.13
2022-08-30T12:44:47.493Z,95450.34
2022-08-30T12:47:23.561Z,95437.34
2022-08-30T12:50:15.207Z,95434.81
2022-08-30T12:52:52.560Z,95430.47
2022-08-30T12:55:55.501Z,95429.53
2022-08-30T12:58:50.581Z,95434.56
2022-08-30T13:01:43.646Z,95438.75
2022-08-30T13:04:29.566Z,95436.41
2022-08-30T13:07:17.499Z,95434.72
2022-08-30T13:09:50.586Z,95437.41
2022-08-30T13:12:37.490Z,95434.13
2022-08-30T13:15:32.524Z,95425.72
2022-08-30T13:18:26.884Z,95420.75
2022-08-30T13:21:38.529Z,95413.19
2022-08-30T13:24:32.514Z,95413.28
2022-08-30T13:27:19.538Z,95408.94
2022-08-30T13:29:53.604Z,95402.78
2022-08-30T13:32:44.505Z,95410.59
2022-08-30T13:35:18.625Z,95408.75
2022-08-30T13:38:15.511Z,95406.84
2022-08-30T13:41:09.526Z,95407.75
2022-08-30T13:44:14.078Z,95404.41
2022-08-30T13:47:32.112Z,95403.72
2022-08-30T13:50:05.559Z,95406.50
2022-08-30T13:52:45.512Z,95408.31
2022-08-30T13:55:39.521Z,95401.59
2022-08-30T13:58:27.537Z,95398.25
2022-08-30T14:01:07.610Z,95393.81
2022-08-30T14:04:17.074Z,95399.91
2022-08-30T14:07:20.342Z,95400.00
2022-08-30T14:13:16.537Z,95400.13
2022-08-30T14:19:06.577Z,95395.94
2022-08-30T14:21:54.543Z,95394.41
2022-08-30T14:24:27.799Z,95391.81
2022-08-30T14:27:14.539Z,95388.47
2022-08-30T14:29:50.655Z,95382.50
2022-08-30T14:32:37.577Z,95384.34
2022-08-30T14:35:11.621Z,95386.00
2022-08-30T14:37:58.555Z,95383.41
2022-08-30T14:40:52.566Z,95380.81
2022-08-30T14:43:39.563Z,95380.81
2022-08-30T14:46:13.733Z,95373.84
2022-08-30T14:49:00.550Z,95368.66
2022-08-30T14:51:33.673Z,95373.78
2022-08-30T14:54:25.778Z,95367.75
2022-08-30T14:57:06.559Z,95369.44
2022-08-30T15:00:00.614Z,95375.47
2022-08-30T15:02:47.553Z,95368.53
2022-08-30T15:05:21.644Z,95375.56
2022-08-30T15:08:08.570Z,95375.56
2022-08-30T15:10:48.595Z,95373.84
2022-08-30T15:13:35.576Z,95368.75
2022-08-30T15:16:09.669Z,95369.66
2022-08-30T15:18:56.581Z,95367.16
2022-08-30T15:21:33.654Z,95364.56
2022-08-30T15:24:29.902Z,95364.63
2022-08-30T15:27:06.153Z,95366.41
2022-08-30T15:29:52.609Z,95362.09
2022-08-30T15:32:25.667Z,95353.47
2022-08-30T15:35:13.592Z,95362.25
2022-08-30T15:37:53.603Z,95364.09
2022-08-30T15:40:47.606Z,95358.22
2022-08-30T15:43:41.597Z,95356.59
2022-08-30T15:46:38.627Z,95355.91
2022-08-30T15:49:15.690Z,95362.00
2022-08-30T15:52:08.598Z,95362.16
2022-08-30T15:54:45.475Z,95359.56
2022-08-30T15:57:34.615Z,95357.97
2022-08-30T16:00:16.603Z,95359.81
2022-08-30T16:03:03.614Z,95354.69
2022-08-30T16:05:45.610Z,95347.88
2022-08-30T16:08:32.595Z,95347.03
2022-08-30T16:11:12.614Z,95343.63
2022-08-30T16:14:08.593Z,95342.09
2022-08-30T16:17:02.621Z,95342.16
2022-08-30T16:19:49.651Z,95350.88
2022-08-30T16:22:23.322Z,95351.88
2022-08-30T16:25:11.630Z,95358.78
2022-08-30T16:27:44.769Z,95341.72
2022-08-30T16:30:31.726Z,95343.66
2022-08-30T16:33:04.695Z,95353.28
2022-08-30T16:35:52.648Z,95350.00
2022-08-30T16:38:26.713Z,95354.59
2022-08-30T16:41:20.687Z,95361.75
2022-08-30T16:44:05.243Z,95355.78
2022-08-30T16:46:58.712Z,95364.66
2022-08-30T16:49:45.644Z,95363.03
2022-08-30T16:52:18.755Z,95371.97
2022-08-30T16:55:05.660Z,95363.56
2022-08-30T16:57:39.164Z,95367.16
2022-08-30T17:00:25.672Z,95372.59
2022-08-30T17:03:01.735Z,95373.72
2022-08-30T17:05:50.019Z,95381.81
2022-08-30T17:08:23.761Z,95388.00
2022-08-30T17:11:10.637Z,95381.50
2022-08-30T17:13:43.705Z,95385.28
2022-08-30T17:16:30.767Z,95385.56
2022-08-30T17:19:13.637Z,95384.94
2022-08-30T17:22:08.698Z,95395.56
2022-08-30T17:24:55.645Z,95408.03
2022-08-30T17:27:29.814Z,95397.09
2022-08-30T17:30:17.674Z,95409.41
2022-08-30T17:32:53.547Z,95411.44
2022-08-30T17:35:41.667Z,95413.38
2022-08-30T17:38:14.782Z,95421.44
2022-08-30T17:41:08.678Z,95423.50
2022-08-30T17:44:02.664Z,95424.72
2022-08-30T17:46:49.686Z,95423.22
2022-08-30T17:49:30.660Z,95437.25
2022-08-30T17:52:17.657Z,95440.94
2022-08-30T17:54:50.860Z,95440.25
2022-08-30T17:57:37.658Z,95439.63
2022-08-30T18:00:13.023Z,95445.72
2022-08-30T18:03:03.768Z,95445.03
2022-08-30T18:05:38.742Z,95442.72
2022-08-30T18:08:28.674Z,95444.63
2022-08-30T18:11:01.754Z,95461.13
2022-08-30T18:13:48.699Z,95465.63
2022-08-30T18:16:26.685Z,95466.66
2022-08-30T18:19:14.708Z,95466.91
2022-08-30T18:21:50.780Z,95470.53
2022-08-30T18:24:37.679Z,95477.63
2022-08-30T18:27:12.018Z,95473.38
2022-08-30T18:29:59.678Z,95470.03
2022-08-30T18:32:35.293Z,95463.16
2022-08-30T18:35:24.677Z,95463.28
2022-08-30T18:37:58.134Z,95455.56
2022-08-30T18:40:51.957Z,95465.19
2022-08-30T18:43:39.690Z,95461.94
2022-08-30T18:46:15.788Z,95462.91
2022-08-30T18:49:06.706Z,95460.38
2022-08-30T18:51:46.689Z,95455.38
2022-08-30T18:54:37.706Z,95461.63
2022-08-30T18:57:10.848Z,95459.03
2022-08-30T18:59:57.708Z,95460.84
2022-08-30T19:02:37.703Z,95459.19
2022-08-30T19:05:32.709Z,95465.22
2022-08-30T19:08:20.709Z,95461.09
2022-08-30T19:10:53.782Z,95451.75
2022-08-30T19:13:40.717Z,95453.50
2022-08-30T19:16:14.808Z,95447.59
2022-08-30T19:19:01.742Z,95456.38
2022-08-30T19:21:34.800Z,95452.19
2022-08-30T19:24:21.740Z,95458.41
2022-08-30T19:26:54.898Z,95453.41
2022-08-30T19:29:41.705Z,95454.31
2022-08-30T19:32:17.815Z,95444.78
2022-08-30T19:34:57.730Z,95449.91
2022-08-30T19:37:37.791Z,95457.66
2022-08-30T19:40:32.790Z,95452.59
2022-08-30T19:43:26.720Z,95457.00
2022-08-30T19:46:21.764Z,95453.63
2022-08-30T19:49:10.753Z,95457.06
2022-08-30T19:51:51.775Z,95459.66
2022-08-30T19:54:45.729Z,95457.94
2022-08-30T19:57:32.756Z,95451.97
2022-08-30T20:00:06.179Z,95460.56
2022-08-30T20:02:53.731Z,95455.41
2022-08-30T20:05:35.751Z,95462.25
2022-08-30T20:08:22.756Z,95461.41
2022-08-30T20:11:02.762Z,95463.09
2022-08-30T20:13:49.732Z,95458.78
2022-08-30T20:16:28.393Z,95459.56
2022-08-30T20:19:18.745Z,95455.28
2022-08-30T20:22:07.075Z,95458.00
2022-08-30T20:24:48.759Z,95453.66
2022-08-30T20:27:43.742Z,95453.78
2022-08-30T20:30:30.767Z,95454.66
2022-08-30T20:33:07.113Z,95442.78
2022-08-30T20:35:55.742Z,95442.03
2022-08-30T20:38:29.380Z,95448.94
2022-08-30T20:41:18.745Z,95452.34
2022-08-30T20:44:00.766Z,95461.03
2022-08-30T20:46:57.769Z,95459.28
2022-08-30T20:49:44.777Z,95463.59
2022-08-30T20:52:17.909Z,95460.22
2022-08-30T20:55:05.790Z,95468.06
2022-08-30T20:57:45.797Z,95469.00
2022-08-30T21:00:32.767Z,95467.50
2022-08-30T21:03:08.338Z,95464.97
2022-08-30T21:06:05.782Z,95477.13
2022-08-30T21:08:46.784Z,95473.00
2022-08-30T21:11:19.858Z,95467.06
2022-08-30T21:14:06.774Z,95472.44
2022-08-30T21:16:41.955Z,95470.06
2022-08-30T21:19:28.769Z,95471.00
2022-08-30T21:22:08.785Z,95468.50
2022-08-30T21:25:02.784Z,95465.94
2022-08-30T21:27:50.789Z,95468.72
2022-08-30T21:30:23.873Z,95467.97
2022-08-30T21:33:12.782Z,95470.56
2022-08-30T21:36:04.514Z,95474.91
2022-08-30T21:38:50.803Z,95474.13
2022-08-30T21:41:23.840Z,95481.03
2022-08-30T21:44:15.800Z,95476.81
2022-08-30T21:46:49.886Z,95483.84
2022-08-30T21:49:36.797Z,95478.03
2022-08-30T21:52:09.877Z,95481.47
2022-08-30T21:54:56.823Z,95483.31
2022-08-30T21:57:36.804Z,95482.56
2022-08-30T22:00:26.791Z,95481.66
2022-08-30T22:03:06.883Z,95488.59
2022-08-30T22:06:06.787Z,95484.34
2022-08-30T22:09:01.818Z,95481.81
2022-08-30T22:11:50.910Z,95482.59
2022-08-30T22:14:26.521Z,95474.06
2022-08-30T22:17:13.808Z,95472.44
2022-08-30T22:19:46.876Z,95473.25
2022-08-30T22:22:33.819Z,95470.53
2022-08-30T22:25:06.880Z,95474.72
2022-08-30T22:27:53.842Z,95460.88
2022-08-30T22:30:27.801Z,95460.97
2022-08-30T22:33:14.820Z,95453.38
2022-08-30T22:35:55.825Z,95459.47
2022-08-30T22:38:42.822Z,95459.41
2022-08-30T22:41:25.823Z,95462.84
2022-08-30T22:44:18.820Z,95470.56
2022-08-30T22:46:58.834Z,95462.84
2022-08-30T22:49:52.839Z,95461.16
2022-08-30T22:52:39.818Z,95461.28
2022-08-30T22:55:20.844Z,95462.94
2022-08-30T22:58:14.827Z,95453.53
2022-08-30T23:01:08.877Z,95452.00
2022-08-30T23:03:56.833Z,95457.28
2022-08-30T23:06:37.833Z,95450.53
2022-08-30T23:09:25.834Z,95449.78
2022-08-30T23:11:58.934Z,95443.75
2022-08-30T23:14:45.846Z,95447.22
2022-08-30T23:17:18.939Z,95443.72
2022-08-30T23:20:05.848Z,95448.84
2022-08-30T23:22:38.927Z,95443.66
2022-08-30T23:25:44.467Z,95438.38
2022-08-30T23:28:43.840Z,95439.91
2022-08-30T23:31:48.872Z,95443.22
2022-08-30T23:34:40.498Z,95437.94
2022-08-30T23:37:45.854Z,95435.31
2022-08-30T23:40:46.881Z,95436.16
2022-08-30T23:43:58.831Z,95436.13
2022-08-30T23:47:03.862Z,95421.50
2022-08-30T23:49:55.619Z,95418.06
2022-08-30T23:53:01.871Z,95401.72
2022-08-30T23:55:59.859Z,95407.66
2022-08-30T23:59:11.874Z,95405.91
